Arviat Airport
CYEK : now visible

Airfield :











YOU CAN JOIN US ON...

 
LOGIN :

Register | Disclaimer

   EN    FR    IT 

 









Legend :    VFR   Marginal VFR   IFR   Intensive IFR   Very Intensive IFR
Visi :
Ceiling :
>= 8 km
>= 3000ft
5 to 8 km
1000 to 3000 ft
1500m to 5 km
500 to 1000 ft
800 to 1500m
200 to 500 ft
< 800m
< 200 ft
Symbols :   Thunderstorms  Fog  Heavy snow  Heavy precipitations  Wind > 20 kt






- Airport Elevation : 32 ft
- IATA code : YEK


CYEK - Arviat

CURRENT METAR :
  • 272018Z 35023G28KT 15SM OVC041 M08/M11 A2958 RMK SC8 SLP018

EXPIRED METARs :
  • 272000Z 34024G30KT 6SM -SN BLSN FEW016 OVC037 M08/M10 A2957 RMK SC1SC7 SLP015
  • 271940Z 34021G29KT 2 1/2SM -SN BLSN FEW016 OVC041 M08/M10 A2956 RMK SC2SC6 SLP012
  • 271900Z 34021G27KT 10SM -SN DRSN FEW016 OVC030 M08/M10 A2955 RMK SC2SC6 -SN INTMT SLP010
  • 271800Z 33019KT 15SM SCT017 OVC036 M08/M11 A2955 RMK SC4SC4 INTMT -SN SLP008

TAF TAF CYEK
Valid from the 27 at 18:00 until the 28 at 06:00 UTC


271739Z 2718/2806 33020G30KT P6SM OVC030
TEMPO 2718/2806 P6SM -SN BKN020
BECMG 2722/2724 34025G35KT RMK NXT FCST BY 280000Z
CZEG FIR / North America



MET'MAP, your aeronautical weather chart ! - Copyright ORBIFLY December 2007 - Disclaimer

ORBIFLY MET'MAP TEAM :

Programming & Development : Alexandra Zaïnal
Concept & original design : Baudouin d'Aumeries
Assistance for programming : Marc-Olivier Méhu
Technical & hardware support : Manuel Goepfert

Contact : metmap@orbifly.com




SOURCES & CREDITS :

   NOAA       Earth
Advisory